createdAt,value
2023-05-03T00:00:29.559Z,1006.33
2023-05-03T00:01:29.550Z,1006.31
2023-05-03T00:02:29.602Z,1006.38
2023-05-03T00:03:29.529Z,1006.32
2023-05-03T00:04:29.567Z,1006.33
2023-05-03T00:05:29.553Z,1006.33
2023-05-03T00:06:29.544Z,1006.27
2023-05-03T00:07:29.489Z,1006.32
2023-05-03T00:08:29.507Z,1006.33
2023-05-03T00:09:29.500Z,1006.29
2023-05-03T00:10:29.499Z,1006.26
2023-05-03T00:11:29.463Z,1006.29
2023-05-03T00:12:29.459Z,1006.27
2023-05-03T00:13:29.447Z,1006.27
2023-05-03T00:14:29.468Z,1006.25
2023-05-03T00:15:29.425Z,1006.23
2023-05-03T00:16:29.456Z,1006.23
2023-05-03T00:17:29.424Z,1006.21
2023-05-03T00:18:29.408Z,1006.15
2023-05-03T00:19:31.888Z,1006.22
2023-05-03T00:20:30.435Z,1006.19
2023-05-03T00:21:29.406Z,1006.13
2023-05-03T00:22:29.376Z,1006.16
2023-05-03T00:23:29.401Z,1006.20
2023-05-03T00:24:29.390Z,1006.20
2023-05-03T00:25:29.353Z,1006.20
2023-05-03T00:26:29.336Z,1006.14
2023-05-03T00:27:29.340Z,1006.18
2023-05-03T00:28:29.339Z,1006.12
2023-05-03T00:29:29.342Z,1006.14
2023-05-03T00:30:29.313Z,1006.14
2023-05-03T00:31:29.351Z,1006.17
2023-05-03T00:32:29.294Z,1006.17
2023-05-03T00:33:29.287Z,1006.19
2023-05-03T00:34:29.298Z,1006.21
2023-05-03T00:35:29.265Z,1006.18
2023-05-03T00:36:29.278Z,1006.20
2023-05-03T00:37:29.256Z,1006.17
2023-05-03T00:38:29.258Z,1006.25
2023-05-03T00:39:29.277Z,1006.20
2023-05-03T00:40:29.255Z,1006.13
2023-05-03T00:41:29.250Z,1006.17
2023-05-03T00:42:29.225Z,1006.20
2023-05-03T00:43:29.215Z,1006.14
2023-05-03T00:44:29.292Z,1006.18
2023-05-03T00:45:29.204Z,1006.13
2023-05-03T00:46:29.237Z,1006.12
2023-05-03T00:47:29.201Z,1006.10
2023-05-03T00:48:29.191Z,1006.02
2023-05-03T00:49:29.217Z,1006.08
2023-05-03T00:50:29.180Z,1006.05
2023-05-03T00:51:29.167Z,1006.08
2023-05-03T00:52:29.146Z,1006.08
2023-05-03T00:53:29.175Z,1006.11
2023-05-03T00:54:29.208Z,1006.10
2023-05-03T00:55:29.151Z,1006.08
2023-05-03T00:56:31.135Z,1006.09
2023-05-03T00:57:29.143Z,1006.11
2023-05-03T00:58:29.102Z,1006.10
2023-05-03T00:59:29.132Z,1006.08
2023-05-03T01:00:29.102Z,1006.10
2023-05-03T01:01:29.115Z,1006.14
2023-05-03T01:02:29.173Z,1006.11
2023-05-03T01:03:29.145Z,1006.10
2023-05-03T01:04:29.104Z,1006.16
2023-05-03T01:05:29.063Z,1006.16
2023-05-03T01:06:29.085Z,1006.15
2023-05-03T01:07:29.043Z,1006.11
2023-05-03T01:08:29.058Z,1006.12
2023-05-03T01:09:29.052Z,1006.13
2023-05-03T01:10:29.017Z,1006.09
2023-05-03T01:11:29.016Z,1006.05
2023-05-03T01:12:29.011Z,1006.14
2023-05-03T01:13:28.994Z,1006.12
2023-05-03T01:14:29.017Z,1006.02
2023-05-03T01:15:28.985Z,1006.10
2023-05-03T01:16:29.001Z,1006.14
2023-05-03T01:17:29.059Z,1006.13
2023-05-03T01:18:28.953Z,1006.12
2023-05-03T01:19:29.013Z,1006.14
2023-05-03T01:20:28.934Z,1006.14
2023-05-03T01:21:28.926Z,1006.12
2023-05-03T01:22:28.918Z,1006.10
2023-05-03T01:23:28.910Z,1006.04
2023-05-03T01:24:28.918Z,1006.11
2023-05-03T01:25:28.883Z,1006.15
2023-05-03T01:26:28.883Z,1006.13
2023-05-03T01:27:28.876Z,1006.18
2023-05-03T01:28:28.857Z,1006.11
2023-05-03T01:29:28.887Z,1006.18
2023-05-03T01:30:28.853Z,1006.12
2023-05-03T01:31:28.941Z,1006.07
2023-05-03T01:32:28.827Z,1006.08
2023-05-03T01:33:28.838Z,1006.15
2023-05-03T01:34:28.836Z,1006.20
2023-05-03T01:35:28.810Z,1006.06
2023-05-03T01:36:28.809Z,1006.16
2023-05-03T01:37:28.789Z,1006.10
2023-05-03T01:38:28.784Z,1006.11
2023-05-03T01:39:28.777Z,1006.16
2023-05-03T01:40:28.797Z,1006.16
2023-05-03T01:41:28.803Z,1006.18
2023-05-03T01:42:28.748Z,1006.20
2023-05-03T01:43:28.747Z,1006.13
2023-05-03T01:44:28.736Z,1006.28
2023-05-03T01:45:28.800Z,1006.19
2023-05-03T01:46:28.810Z,1006.23
2023-05-03T01:47:28.760Z,1006.21
2023-05-03T01:48:28.739Z,1006.25
2023-05-03T01:49:28.713Z,1006.21
2023-05-03T01:50:28.721Z,1006.19
2023-05-03T01:51:28.696Z,1006.19
2023-05-03T01:52:28.709Z,1006.17
2023-05-03T01:53:28.686Z,1006.11
2023-05-03T01:54:28.681Z,1006.16
2023-05-03T01:55:28.690Z,1006.10
2023-05-03T01:56:28.647Z,1006.09
2023-05-03T01:57:28.646Z,1006.10
2023-05-03T01:58:28.644Z,1006.07
2023-05-03T01:59:28.673Z,1006.10
2023-05-03T02:00:28.622Z,1006.14
2023-05-03T02:01:28.647Z,1006.17
2023-05-03T02:02:28.631Z,1006.19
2023-05-03T02:03:28.594Z,1006.09
2023-05-03T02:04:28.669Z,1006.13
2023-05-03T02:05:28.591Z,1006.10
2023-05-03T02:06:28.639Z,1006.21
2023-05-03T02:07:29.570Z,1006.25
2023-05-03T02:08:28.564Z,1006.25
2023-05-03T02:09:28.600Z,1006.23
2023-05-03T02:10:28.549Z,1006.22
2023-05-03T02:11:28.546Z,1006.20
2023-05-03T02:12:28.556Z,1006.25
2023-05-03T02:13:28.523Z,1006.19
2023-05-03T02:14:28.540Z,1006.24
2023-05-03T02:15:28.517Z,1006.28
2023-05-03T02:16:28.506Z,1006.26
2023-05-03T02:17:28.547Z,1006.23
2023-05-03T02:18:28.497Z,1006.29
2023-05-03T02:19:28.499Z,1006.19
2023-05-03T02:20:28.470Z,1006.26
2023-05-03T02:21:28.460Z,1006.26
2023-05-03T02:22:28.484Z,1006.24
2023-05-03T02:23:28.452Z,1006.26
2023-05-03T02:24:28.467Z,1006.24
2023-05-03T02:25:28.436Z,1006.23
2023-05-03T02:26:28.420Z,1006.24
2023-05-03T02:27:28.416Z,1006.27
2023-05-03T02:28:28.405Z,1006.25
2023-05-03T02:29:28.425Z,1006.19
2023-05-03T02:30:28.398Z,1006.23
2023-05-03T02:31:28.449Z,1006.26
2023-05-03T02:32:28.494Z,1006.29
2023-05-03T02:33:28.367Z,1006.26
2023-05-03T02:34:28.385Z,1006.24
2023-05-03T02:35:28.353Z,1006.28
2023-05-03T02:36:28.342Z,1006.32
2023-05-03T02:37:28.340Z,1006.27
2023-05-03T02:38:28.332Z,1006.30
2023-05-03T02:39:28.348Z,1006.33
2023-05-03T02:40:28.345Z,1006.28
2023-05-03T02:41:28.307Z,1006.32
2023-05-03T02:42:28.306Z,1006.37
2023-05-03T02:43:28.307Z,1006.32
2023-05-03T02:44:28.313Z,1006.27
2023-05-03T02:45:28.270Z,1006.40
2023-05-03T02:46:28.300Z,1006.42
2023-05-03T02:47:28.313Z,1006.41
2023-05-03T02:48:28.257Z,1006.37
2023-05-03T02:49:28.275Z,1006.40
2023-05-03T02:50:28.253Z,1006.37
2023-05-03T02:51:28.239Z,1006.33
2023-05-03T02:52:28.220Z,1006.29
2023-05-03T02:53:28.223Z,1006.29
2023-05-03T02:54:28.244Z,1006.33
2023-05-03T02:55:28.197Z,1006.29
2023-05-03T02:56:28.198Z,1006.27
2023-05-03T02:57:28.198Z,1006.26
2023-05-03T02:58:28.185Z,1006.26
2023-05-03T02:59:28.193Z,1006.22
2023-05-03T03:00:28.192Z,1006.23
2023-05-03T03:01:28.205Z,1006.27
2023-05-03T03:02:28.243Z,1006.28
2023-05-03T03:03:28.229Z,1006.27
2023-05-03T03:04:28.157Z,1006.38
2023-05-03T03:05:28.120Z,1006.30
2023-05-03T03:06:28.265Z,1006.35
2023-05-03T03:07:28.113Z,1006.38
2023-05-03T03:08:28.102Z,1006.34
2023-05-03T03:09:28.126Z,1006.41
2023-05-03T03:10:28.090Z,1006.37
2023-05-03T03:11:28.075Z,1006.39
2023-05-03T03:12:28.068Z,1006.37
2023-05-03T03:13:28.076Z,1006.40
2023-05-03T03:14:28.085Z,1006.44
2023-05-03T03:15:28.060Z,1006.41
2023-05-03T03:16:28.066Z,1006.46
2023-05-03T03:17:28.059Z,1006.48
2023-05-03T03:18:28.036Z,1006.46
2023-05-03T03:19:28.016Z,1006.44
2023-05-03T03:20:28.042Z,1006.42
2023-05-03T03:21:28.000Z,1006.52
2023-05-03T03:22:28.015Z,1006.55
2023-05-03T03:23:28.003Z,1006.54
2023-05-03T03:24:27.979Z,1006.57
2023-05-03T03:25:27.995Z,1006.58
2023-05-03T03:26:27.966Z,1006.63
2023-05-03T03:27:27.956Z,1006.65
2023-05-03T03:28:27.957Z,1006.61
2023-05-03T03:29:27.941Z,1006.64
2023-05-03T03:30:27.965Z,1006.69
2023-05-03T03:31:27.954Z,1006.60
2023-05-03T03:32:27.916Z,1006.65
2023-05-03T03:33:27.918Z,1006.67
2023-05-03T03:34:27.908Z,1006.62
2023-05-03T03:35:27.933Z,1006.68
2023-05-03T03:36:27.937Z,1006.70
2023-05-03T03:37:27.880Z,1006.64
2023-05-03T03:38:27.873Z,1006.64
2023-05-03T03:39:27.862Z,1006.61
2023-05-03T03:40:27.881Z,1006.58
2023-05-03T03:41:27.863Z,1006.60
2023-05-03T03:42:27.840Z,1006.60
2023-05-03T03:43:27.851Z,1006.63
2023-05-03T03:44:27.826Z,1006.51
2023-05-03T03:45:27.871Z,1006.56
2023-05-03T03:46:27.844Z,1006.59
2023-05-03T03:47:27.842Z,1006.62
2023-05-03T03:48:27.795Z,1006.63
2023-05-03T03:49:27.789Z,1006.62
2023-05-03T03:50:28.081Z,1006.57
2023-05-03T03:51:27.776Z,1006.60
2023-05-03T03:52:27.797Z,1006.59
2023-05-03T03:53:27.764Z,1006.66
2023-05-03T03:54:27.752Z,1006.61
2023-05-03T03:55:27.777Z,1006.64
2023-05-03T03:56:27.735Z,1006.66
2023-05-03T03:57:27.733Z,1006.65
2023-05-03T03:58:27.720Z,1006.64
2023-05-03T03:59:27.716Z,1006.56
2023-05-03T04:00:27.733Z,1006.58
2023-05-03T04:01:27.703Z,1006.59
2023-05-03T04:02:27.905Z,1006.52
2023-05-03T04:03:27.753Z,1006.60
2023-05-03T04:04:27.684Z,1006.60
2023-05-03T04:05:27.713Z,1006.60
2023-05-03T04:06:27.704Z,1006.55
2023-05-03T04:07:27.644Z,1006.64
2023-05-03T04:08:27.644Z,1006.56
2023-05-03T04:09:27.628Z,1006.54
2023-05-03T04:10:27.651Z,1006.58
2023-05-03T04:11:28.627Z,1006.57
2023-05-03T04:12:27.620Z,1006.59
2023-05-03T04:13:27.601Z,1006.61
2023-05-03T04:14:27.595Z,1006.66
2023-05-03T04:15:27.644Z,1006.57
2023-05-03T04:16:27.610Z,1006.60
2023-05-03T04:17:27.606Z,1006.55
2023-05-03T04:18:27.567Z,1006.58
2023-05-03T04:19:27.555Z,1006.60
2023-05-03T04:20:27.574Z,1006.61
2023-05-03T04:21:27.560Z,1006.64
2023-05-03T04:22:27.537Z,1006.60
2023-05-03T04:23:27.530Z,1006.63
2023-05-03T04:24:27.519Z,1006.65
2023-05-03T04:25:27.537Z,1006.62
2023-05-03T04:26:31.689Z,1006.67
2023-05-03T04:27:28.501Z,1006.69
2023-05-03T04:28:27.496Z,1006.65
2023-05-03T04:29:27.483Z,1006.73
2023-05-03T04:30:27.495Z,1006.69
2023-05-03T04:31:27.523Z,1006.66
2023-05-03T04:32:27.482Z,1006.69
2023-05-03T04:33:27.462Z,1006.71
2023-05-03T04:34:27.456Z,1006.74
2023-05-03T04:35:27.466Z,1006.75
2023-05-03T04:36:27.434Z,1006.80
2023-05-03T04:37:27.418Z,1006.79
2023-05-03T04:38:27.409Z,1006.83
2023-05-03T04:39:27.405Z,1006.85
2023-05-03T04:40:27.434Z,1006.77
2023-05-03T04:41:27.391Z,1006.84
2023-05-03T04:42:27.390Z,1006.91
2023-05-03T04:43:27.380Z,1006.90
2023-05-03T04:44:27.354Z,1006.85
2023-05-03T04:45:28.423Z,1006.86
2023-05-03T04:46:27.371Z,1006.81
2023-05-03T04:47:27.360Z,1006.89
2023-05-03T04:48:27.336Z,1006.86
2023-05-03T04:49:27.336Z,1006.88
2023-05-03T04:50:27.368Z,1006.85
2023-05-03T04:51:27.349Z,1006.85
2023-05-03T04:52:27.321Z,1006.88
2023-05-03T04:53:27.299Z,1006.90
2023-05-03T04:54:27.303Z,1006.91
2023-05-03T04:55:27.285Z,1006.92
2023-05-03T04:56:27.308Z,1006.90
2023-05-03T04:57:27.275Z,1006.88
2023-05-03T04:58:27.256Z,1006.95
2023-05-03T04:59:27.249Z,1006.88
2023-05-03T05:00:27.303Z,1006.92
2023-05-03T05:01:27.264Z,1006.82
2023-05-03T05:02:27.379Z,1006.91
2023-05-03T05:03:27.302Z,1006.86
2023-05-03T05:04:27.206Z,1006.92
2023-05-03T05:05:27.233Z,1006.93
2023-05-03T05:06:27.236Z,1006.95
2023-05-03T05:07:27.186Z,1007.02
2023-05-03T05:08:27.216Z,1006.91
2023-05-03T05:09:27.180Z,1006.90
2023-05-03T05:10:27.195Z,1006.94
2023-05-03T05:11:27.175Z,1006.85
2023-05-03T05:12:27.150Z,1006.85
2023-05-03T05:13:27.152Z,1006.84
2023-05-03T05:14:27.151Z,1006.84
2023-05-03T05:15:27.151Z,1006.80
2023-05-03T05:16:27.137Z,1006.78
2023-05-03T05:17:27.188Z,1006.84
2023-05-03T05:18:27.130Z,1006.75
2023-05-03T05:19:27.098Z,1006.81
2023-05-03T05:20:27.151Z,1006.82
2023-05-03T05:21:27.082Z,1006.75
2023-05-03T05:22:27.078Z,1006.75
2023-05-03T05:23:27.077Z,1006.84
2023-05-03T05:24:27.073Z,1006.84
2023-05-03T05:25:27.074Z,1006.94
2023-05-03T05:26:27.051Z,1006.90
2023-05-03T05:27:27.150Z,1006.87
2023-05-03T05:28:27.062Z,1006.90
2023-05-03T05:29:27.029Z,1006.86
2023-05-03T05:30:27.052Z,1006.92
2023-05-03T05:31:27.041Z,1006.88
2023-05-03T05:32:27.014Z,1006.95
2023-05-03T05:33:27.071Z,1006.97
2023-05-03T05:34:27.107Z,1006.90
2023-05-03T05:35:59.162Z,1007.01
2023-05-03T05:36:26.974Z,1006.96
2023-05-03T05:37:26.965Z,1006.94
2023-05-03T05:38:26.955Z,1006.90
2023-05-03T05:39:26.950Z,1006.95
2023-05-03T05:40:26.949Z,1006.93
2023-05-03T05:41:26.990Z,1006.88
2023-05-03T05:42:26.936Z,1006.93
2023-05-03T05:43:26.920Z,1007.00
2023-05-03T05:44:26.909Z,1006.99
2023-05-03T05:45:26.915Z,1007.04
2023-05-03T05:46:26.957Z,1007.05
2023-05-03T05:47:26.917Z,1007.08
2023-05-03T05:48:26.891Z,1007.07
2023-05-03T05:49:27.308Z,1007.17
2023-05-03T05:50:26.881Z,1007.09
2023-05-03T05:51:26.903Z,1007.11
2023-05-03T05:52:26.863Z,1007.10
2023-05-03T05:53:26.843Z,1007.11
2023-05-03T05:54:28.063Z,1007.05
2023-05-03T05:55:26.835Z,1007.08
2023-05-03T05:56:26.847Z,1007.04
2023-05-03T05:57:26.812Z,1007.09
2023-05-03T05:58:26.806Z,1007.01
2023-05-03T05:59:26.837Z,1006.98
2023-05-03T06:00:26.799Z,1006.99
2023-05-03T06:01:26.815Z,1006.98
2023-05-03T06:02:26.842Z,1007.05
2023-05-03T06:03:26.781Z,1007.08
2023-05-03T06:04:26.848Z,1007.05
2023-05-03T06:05:26.774Z,1007.04
2023-05-03T06:06:26.795Z,1007.07
2023-05-03T06:07:26.739Z,1007.01
2023-05-03T06:08:26.737Z,1007.02
2023-05-03T06:09:26.733Z,1006.95
2023-05-03T06:10:26.801Z,1007.01
2023-05-03T06:11:27.395Z,1007.03
2023-05-03T06:12:26.700Z,1006.92
2023-05-03T06:13:26.687Z,1007.01
2023-05-03T06:14:26.686Z,1006.92
2023-05-03T06:15:26.791Z,1006.99
2023-05-03T06:16:26.751Z,1007.02
2023-05-03T06:17:26.655Z,1006.99
2023-05-03T06:18:27.700Z,1007.00
2023-05-03T06:19:26.660Z,1006.99
2023-05-03T06:20:26.648Z,1006.95
2023-05-03T06:21:26.668Z,1006.95
2023-05-03T06:22:26.708Z,1006.94
2023-05-03T06:23:26.617Z,1006.98
2023-05-03T06:24:26.631Z,1006.92
2023-05-03T06:25:26.598Z,1006.90
2023-05-03T06:26:26.618Z,1006.84
2023-05-03T06:27:26.620Z,1006.96
2023-05-03T06:28:26.590Z,1006.91
2023-05-03T06:29:26.567Z,1006.96
2023-05-03T06:30:26.586Z,1006.92
2023-05-03T06:31:27.382Z,1006.95
2023-05-03T06:32:26.599Z,1006.94
2023-05-03T06:33:26.557Z,1006.88
2023-05-03T06:34:26.544Z,1006.94
2023-05-03T06:35:26.535Z,1006.94
2023-05-03T06:36:26.553Z,1006.92
2023-05-03T06:37:26.533Z,1006.97
2023-05-03T06:38:26.511Z,1006.92
2023-05-03T06:39:26.500Z,1006.93
2023-05-03T06:40:26.515Z,1006.87
2023-05-03T06:41:26.515Z,1006.90
2023-05-03T06:42:26.485Z,1006.87
2023-05-03T06:43:26.474Z,1006.96
2023-05-03T06:44:26.472Z,1006.85
2023-05-03T06:45:26.460Z,1006.90
2023-05-03T06:46:26.514Z,1006.91
2023-05-03T06:47:26.485Z,1006.83
2023-05-03T06:48:26.514Z,1006.86
2023-05-03T06:49:26.430Z,1006.88
2023-05-03T06:50:26.411Z,1006.86
2023-05-03T06:51:26.470Z,1006.83
2023-05-03T06:52:26.397Z,1006.91
2023-05-03T06:53:27.407Z,1006.88
2023-05-03T06:54:26.424Z,1006.81
2023-05-03T06:55:26.378Z,1006.85
2023-05-03T06:56:26.399Z,1006.91
2023-05-03T06:57:27.574Z,1006.84
2023-05-03T06:58:26.361Z,1006.87
2023-05-03T06:59:26.342Z,1006.90
2023-05-03T07:00:26.351Z,1006.90
2023-05-03T07:01:26.383Z,1006.90
2023-05-03T07:02:26.391Z,1006.84
2023-05-03T07:03:26.367Z,1006.85
2023-05-03T07:04:26.315Z,1006.75
2023-05-03T07:05:26.295Z,1006.81
2023-05-03T07:06:26.342Z,1006.85
2023-05-03T07:07:26.299Z,1006.81
2023-05-03T07:08:26.299Z,1006.79
2023-05-03T07:09:41.509Z,1006.76
2023-05-03T07:10:30.199Z,1006.80
2023-05-03T07:11:26.277Z,1006.83
2023-05-03T07:12:26.243Z,1006.80
2023-05-03T07:13:26.251Z,1006.82
2023-05-03T07:14:26.232Z,1006.74
2023-05-03T07:15:26.222Z,1006.70
2023-05-03T07:16:26.283Z,1006.69
2023-05-03T07:17:26.272Z,1006.69
2023-05-03T07:18:26.218Z,1006.74
2023-05-03T07:19:26.208Z,1006.76
2023-05-03T07:20:26.240Z,1006.83
2023-05-03T07:21:26.221Z,1006.67
2023-05-03T07:22:26.169Z,1006.73
2023-05-03T07:23:26.163Z,1006.78
2023-05-03T07:24:26.223Z,1006.74
2023-05-03T07:25:26.242Z,1006.79
2023-05-03T07:26:26.144Z,1006.84
2023-05-03T07:27:26.156Z,1006.76
2023-05-03T07:28:26.140Z,1006.80
2023-05-03T07:29:26.130Z,1006.76
2023-05-03T07:30:26.133Z,1006.78
2023-05-03T07:31:26.100Z,1006.73
2023-05-03T07:32:26.188Z,1006.70
2023-05-03T07:33:26.134Z,1006.83
2023-05-03T07:34:26.094Z,1006.83
2023-05-03T07:35:26.069Z,1006.81
2023-05-03T07:36:26.068Z,1006.68
2023-05-03T07:37:26.092Z,1006.78
2023-05-03T07:38:26.040Z,1006.75
2023-05-03T07:39:26.050Z,1006.79
2023-05-03T07:40:26.067Z,1006.79
2023-05-03T07:41:26.033Z,1006.79
2023-05-03T07:42:26.060Z,1006.86
2023-05-03T07:43:26.004Z,1006.82
2023-05-03T07:44:26.003Z,1006.72
2023-05-03T07:45:26.032Z,1006.75
2023-05-03T07:46:26.184Z,1006.81
2023-05-03T07:47:26.080Z,1006.73
2023-05-03T07:48:25.975Z,1006.67
2023-05-03T07:49:25.961Z,1006.70
2023-05-03T07:50:25.950Z,1006.65
2023-05-03T07:51:25.948Z,1006.55
2023-05-03T07:52:26.883Z,1006.58
2023-05-03T07:53:25.939Z,1006.51
2023-05-03T07:54:25.919Z,1006.58
2023-05-03T07:55:25.923Z,1006.60
2023-05-03T07:56:25.907Z,1006.61
2023-05-03T07:57:25.938Z,1006.63
2023-05-03T07:58:38.837Z,1006.56
2023-05-03T07:59:27.887Z,1006.55
2023-05-03T08:00:25.877Z,1006.47
2023-05-03T08:01:25.877Z,1006.54
2023-05-03T08:02:25.991Z,1006.65
2023-05-03T08:03:26.064Z,1006.61
2023-05-03T08:04:26.175Z,1006.60
2023-05-03T08:05:26.048Z,1006.53
2023-05-03T08:06:25.872Z,1006.58
2023-05-03T08:07:25.842Z,1006.56
2023-05-03T08:08:25.836Z,1006.63
2023-05-03T08:09:25.808Z,1006.57
2023-05-03T08:10:25.799Z,1006.60
2023-05-03T08:11:25.785Z,1006.57
2023-05-03T08:12:25.802Z,1006.54
2023-05-03T08:13:25.801Z,1006.55
2023-05-03T08:14:25.791Z,1006.61
2023-05-03T08:15:25.761Z,1006.56
2023-05-03T08:16:25.859Z,1006.61
2023-05-03T08:17:25.809Z,1006.53
2023-05-03T08:18:25.752Z,1006.50
2023-05-03T08:19:25.745Z,1006.67
2023-05-03T08:20:25.721Z,1006.54
2023-05-03T08:21:26.247Z,1006.68
2023-05-03T08:22:25.734Z,1006.59
2023-05-03T08:23:25.699Z,1006.62
2023-05-03T08:24:25.693Z,1006.63
2023-05-03T08:25:25.690Z,1006.64
2023-05-03T08:26:25.681Z,1006.40
2023-05-03T08:27:25.693Z,1006.59
2023-05-03T08:28:25.679Z,1006.49
2023-05-03T08:29:27.577Z,1006.55
2023-05-03T08:30:26.660Z,1006.50
2023-05-03T08:31:25.687Z,1006.44
2023-05-03T08:32:25.694Z,1006.50
2023-05-03T08:33:25.633Z,1006.51
2023-05-03T08:34:26.611Z,1006.55
2023-05-03T08:35:25.665Z,1006.51
2023-05-03T08:36:25.601Z,1006.50
2023-05-03T08:37:25.616Z,1006.49
2023-05-03T08:38:25.585Z,1006.39
2023-05-03T08:39:25.572Z,1006.46
2023-05-03T08:40:25.593Z,1006.36
2023-05-03T08:41:25.564Z,1006.35
2023-05-03T08:42:25.943Z,1006.34
2023-05-03T08:43:25.550Z,1006.35
2023-05-03T08:44:25.538Z,1006.31
2023-05-03T08:45:25.540Z,1006.35
2023-05-03T08:46:25.575Z,1006.39
2023-05-03T08:47:25.652Z,1006.37
2023-05-03T08:48:26.275Z,1006.38
2023-05-03T08:49:25.639Z,1006.40
2023-05-03T08:50:25.570Z,1006.40
2023-05-03T08:51:25.546Z,1006.41
2023-05-03T08:52:25.545Z,1006.38
2023-05-03T08:53:25.465Z,1006.29
2023-05-03T08:54:25.499Z,1006.37
2023-05-03T08:55:26.201Z,1006.39
2023-05-03T08:56:25.469Z,1006.32
2023-05-03T08:57:25.456Z,1006.32
2023-05-03T08:58:25.486Z,1006.32
2023-05-03T08:59:25.534Z,1006.37
2023-05-03T09:00:25.431Z,1006.36
2023-05-03T09:01:25.449Z,1006.36
2023-05-03T09:02:25.492Z,1006.42
2023-05-03T09:03:25.458Z,1006.32
2023-05-03T09:04:25.430Z,1006.36
2023-05-03T09:05:25.435Z,1006.31
2023-05-03T09:06:25.394Z,1006.30
2023-05-03T09:07:25.392Z,1006.24
2023-05-03T09:08:25.367Z,1006.25
2023-05-03T09:09:25.347Z,1006.30
2023-05-03T09:10:25.344Z,1006.23
2023-05-03T09:11:25.320Z,1006.29
2023-05-03T09:12:25.314Z,1006.22
2023-05-03T09:13:25.342Z,1006.26
2023-05-03T09:14:25.294Z,1006.32
2023-05-03T09:15:25.321Z,1006.29
2023-05-03T09:16:25.329Z,1006.38
2023-05-03T09:17:25.271Z,1006.34
2023-05-03T09:18:25.289Z,1006.32
2023-05-03T09:19:25.263Z,1006.34
2023-05-03T09:20:25.253Z,1006.33
2023-05-03T09:21:25.251Z,1006.37
2023-05-03T09:22:25.235Z,1006.32
2023-05-03T09:23:25.918Z,1006.38
2023-05-03T09:24:25.242Z,1006.33
2023-05-03T09:25:25.229Z,1006.27
2023-05-03T09:26:25.276Z,1006.28
2023-05-03T09:27:25.200Z,1006.36
2023-05-03T09:28:25.215Z,1006.30
2023-05-03T09:29:25.189Z,1006.36
2023-05-03T09:30:25.169Z,1006.35
2023-05-03T09:31:25.170Z,1006.35
2023-05-03T09:32:25.350Z,1006.27
2023-05-03T09:33:25.183Z,1006.21
2023-05-03T09:34:25.144Z,1006.34
2023-05-03T09:35:25.137Z,1006.33
2023-05-03T09:36:25.142Z,1006.41
2023-05-03T09:37:25.121Z,1006.35
2023-05-03T09:38:25.447Z,1006.31
2023-05-03T09:39:25.116Z,1006.27
2023-05-03T09:40:25.095Z,1006.29
2023-05-03T09:41:25.086Z,1006.23
2023-05-03T09:42:25.090Z,1006.22
2023-05-03T09:43:25.114Z,1006.24
2023-05-03T09:44:25.131Z,1006.29
2023-05-03T09:45:25.057Z,1006.29
2023-05-03T09:46:25.194Z,1006.28
2023-05-03T09:47:25.069Z,1006.16
2023-05-03T09:48:25.066Z,1006.24
2023-05-03T09:49:25.036Z,1006.18
2023-05-03T09:50:25.049Z,1006.19
2023-05-03T09:51:25.142Z,1006.14
2023-05-03T09:52:25.022Z,1006.26
2023-05-03T09:53:25.028Z,1006.23
2023-05-03T09:54:25.696Z,1006.25
2023-05-03T09:55:25.986Z,1006.13
2023-05-03T09:56:24.975Z,1006.15
2023-05-03T09:57:24.975Z,1006.10
2023-05-03T09:58:24.992Z,1006.09
2023-05-03T09:59:24.967Z,1006.09
2023-05-03T10:00:24.944Z,1006.10
2023-05-03T10:01:25.108Z,1006.14
2023-05-03T10:02:24.968Z,1006.09
2023-05-03T10:03:25.010Z,1006.06
2023-05-03T10:04:25.068Z,1006.01
2023-05-03T10:05:24.911Z,1006.00
2023-05-03T10:06:24.959Z,1005.90
2023-05-03T10:07:24.891Z,1005.94
2023-05-03T10:08:24.926Z,1005.95
2023-05-03T10:09:24.872Z,1005.96
2023-05-03T10:10:24.871Z,1005.95
2023-05-03T10:11:24.877Z,1005.92
2023-05-03T10:12:24.951Z,1005.95
2023-05-03T10:13:24.869Z,1005.93
2023-05-03T10:14:24.860Z,1005.95
2023-05-03T10:15:24.831Z,1005.92
2023-05-03T10:16:24.965Z,1005.96
2023-05-03T10:17:35.338Z,1005.93
2023-05-03T10:18:26.864Z,1005.92
2023-05-03T10:19:24.816Z,1005.92
2023-05-03T10:20:24.798Z,1005.96
2023-05-03T10:21:24.804Z,1005.95
2023-05-03T10:22:24.783Z,1005.90
2023-05-03T10:23:24.803Z,1005.99
2023-05-03T10:24:24.762Z,1005.91
2023-05-03T10:25:24.759Z,1005.92
2023-05-03T10:26:24.744Z,1005.96
2023-05-03T10:27:24.742Z,1005.87
2023-05-03T10:28:24.758Z,1005.94
2023-05-03T10:29:24.756Z,1005.90
2023-05-03T10:30:24.749Z,1005.98
2023-05-03T10:31:24.776Z,1005.97
2023-05-03T10:32:24.773Z,1005.95
2023-05-03T10:33:24.711Z,1005.93
2023-05-03T10:34:24.735Z,1005.99
2023-05-03T10:35:24.672Z,1005.90
2023-05-03T10:36:26.028Z,1005.85
2023-05-03T10:37:24.659Z,1005.86
2023-05-03T10:38:24.749Z,1005.83
2023-05-03T10:39:24.645Z,1005.80
2023-05-03T10:40:24.719Z,1005.72
2023-05-03T10:41:24.624Z,1005.72
2023-05-03T10:42:24.684Z,1005.79
2023-05-03T10:43:24.636Z,1005.80
2023-05-03T10:44:24.610Z,1005.80
2023-05-03T10:45:24.699Z,1005.86
2023-05-03T10:46:24.601Z,1005.81
2023-05-03T10:47:24.614Z,1005.80
2023-05-03T10:48:24.589Z,1005.78
2023-05-03T10:49:24.572Z,1005.81
2023-05-03T10:50:24.551Z,1005.88
2023-05-03T10:51:24.550Z,1005.76
2023-05-03T10:52:24.544Z,1005.78
2023-05-03T10:53:24.553Z,1005.82
2023-05-03T10:54:24.527Z,1005.85
2023-05-03T10:55:24.526Z,1005.66
2023-05-03T10:56:24.510Z,1005.76
2023-05-03T10:57:24.496Z,1005.78
2023-05-03T10:58:25.264Z,1005.81
2023-05-03T10:59:24.474Z,1005.77
2023-05-03T11:00:24.477Z,1005.73
2023-05-03T11:01:24.577Z,1005.82
2023-05-03T11:02:24.515Z,1005.72
2023-05-03T11:03:24.478Z,1005.75
2023-05-03T11:04:24.505Z,1005.67
2023-05-03T11:05:24.466Z,1005.74
2023-05-03T11:06:24.468Z,1005.75
2023-05-03T11:07:24.431Z,1005.70
2023-05-03T11:08:24.438Z,1005.75
2023-05-03T11:09:24.406Z,1005.75
2023-05-03T11:10:24.413Z,1005.69
2023-05-03T11:11:24.390Z,1005.74
2023-05-03T11:12:24.378Z,1005.76
2023-05-03T11:13:24.421Z,1005.71
2023-05-03T11:14:24.368Z,1005.65
2023-05-03T11:15:24.347Z,1005.70
2023-05-03T11:16:24.409Z,1005.78
2023-05-03T11:17:24.362Z,1005.71
2023-05-03T11:18:24.370Z,1005.61
2023-05-03T11:19:24.348Z,1005.63
2023-05-03T11:20:24.317Z,1005.60
2023-05-03T11:21:24.320Z,1005.58
2023-05-03T11:22:24.306Z,1005.54
2023-05-03T11:23:24.314Z,1005.55
2023-05-03T11:24:24.288Z,1005.56
2023-05-03T11:25:24.282Z,1005.63
2023-05-03T11:26:24.476Z,1005.52
2023-05-03T11:27:24.268Z,1005.60
2023-05-03T11:28:24.285Z,1005.53
2023-05-03T11:29:24.290Z,1005.58
2023-05-03T11:30:24.393Z,1005.58
2023-05-03T11:31:24.891Z,1005.61
2023-05-03T11:32:24.340Z,1005.68
2023-05-03T11:33:24.230Z,1005.57
2023-05-03T11:34:24.202Z,1005.68
2023-05-03T11:35:32.903Z,1005.61
2023-05-03T11:36:24.188Z,1005.62
2023-05-03T11:37:24.249Z,1005.55
2023-05-03T11:38:24.232Z,1005.49
2023-05-03T11:39:24.174Z,1005.53
2023-05-03T11:40:24.178Z,1005.46
2023-05-03T11:41:24.151Z,1005.49
2023-05-03T11:42:24.148Z,1005.39
2023-05-03T11:43:24.260Z,1005.41
2023-05-03T11:44:24.125Z,1005.51
2023-05-03T11:45:24.122Z,1005.54
2023-05-03T11:46:24.213Z,1005.48
2023-05-03T11:47:24.160Z,1005.50
2023-05-03T11:48:24.217Z,1005.45
2023-05-03T11:49:24.115Z,1005.40
2023-05-03T11:50:24.079Z,1005.45
2023-05-03T11:51:24.087Z,1005.38
2023-05-03T11:52:24.099Z,1005.39
2023-05-03T11:53:24.059Z,1005.38
2023-05-03T11:54:27.066Z,1005.39
2023-05-03T11:55:25.052Z,1005.31
2023-05-03T11:56:24.057Z,1005.30
2023-05-03T11:57:24.032Z,1005.41
2023-05-03T11:58:24.019Z,1005.32
2023-05-03T11:59:24.124Z,1005.22
2023-05-03T12:00:24.004Z,1005.31
2023-05-03T12:01:24.063Z,1005.21
2023-05-03T12:02:24.147Z,1005.42
2023-05-03T12:03:27.811Z,1005.30
2023-05-03T12:04:26.227Z,1005.33
2023-05-03T12:05:24.889Z,1005.25